首页
METAR-TAF:

METAR-TAF

机场 :

巴馬科國際機場

巴馬科, 马里共和国

纬度: 12-32N, 经度: 007-57W, 海拔: 380米

当前天气观测

该预报发布于35分钟前的14:00 UTC
风速4节,风向多变
温度 36°C
湿度 29%
气压 1013 hPa
能見度: 6000

METAR: GABS 231400Z VRB04KT 6000 NSC 36/15 Q1013 NOSIG

时间: 14:35 (14:35 UTC)

预报

该预报发布于3小时和20分钟前的11:15 UTC
预报有效从23日的 12点(UTC)到 24日的 18点(UTC)
风速6节,风向西转西北
能見度: 4000
少量云层高于3000英尺
浮尘
几率 40% :
短暂存在
从 23日的 14点(UTC)到 23日的 18点(UTC)
能見度: 2000
成为
从 23日的 18点(UTC)到 23日的 20点(UTC)
能見度: 6000

TAF: GABS 231115Z 2312/2418 30006KT 4000 DU FEW030 PROB40 TEMPO 2314/2318 2000 BECMG 2318/2320 6000 NSC

超过4000个机场的气象观测和天气预报(METAR&TAF报告)。

可查询的气象台以黄色和红色小点在地图上表示。

将鼠标移到小点上方,可查看气象台名称。

然后点击查看天气观测和预报。

如需切换地图:点击带黑十字的绿色按钮放大地图;点击带横线的绿色按钮缩小地图;或者点击绿色箭头查看邻近地区的地图。


METAR-TAF: